ETD406 OMAA-VTBS
Flight info
| Callsign | ETD406 |
|---|---|
| Flight time | N/A |
| Altitude | 35000 |
| Route | KANIP N318 GEVED N881 RASKI L639 AAE N895 MONPI/N0496F370 N895 NNP L524 IBETO WILLA1C |
| Aircraft | B77W/H-SDE1E2E3FGHIJ2J3J4J5M1RWXY/LB1D1 |
Departure
| Time | 2026-05-08 04:24 |
|---|---|
| Airport | Zayed International Airport (OMAA) |
Arrival
| Time | N/A |
|---|---|
| Airport | Suvarnabhumi Airport (VTBS) |
| Time | Latitude | Longitude | Altitude | Speed | Heading |
|---|---|---|---|---|---|
| 2026-05-08 03:32 | 24.45181 | 54.64684 | 52 ft | 0 kts | 192° |
| 2026-05-08 04:11 | 24.45193 | 54.64687 | 85 ft | 4 kts | 192° |
| 2026-05-08 04:11 | 24.45215 | 54.64692 | 83 ft | 2 kts | 192° |
| 2026-05-08 04:11 | 24.45241 | 54.64695 | 85 ft | 4 kts | 167° |
| 2026-05-08 04:11 | 24.45264 | 54.64683 | 85 ft | 4 kts | 133° |
| 2026-05-08 04:12 | 24.45277 | 54.64659 | 85 ft | 4 kts | 102° |
| 2026-05-08 04:12 | 24.45274 | 54.64673 | 85 ft | 4 kts | 102° |
| 2026-05-08 04:12 | 24.45273 | 54.64683 | 85 ft | 0 kts | 100° |
| 2026-05-08 04:14 | 24.45269 | 54.64703 | 85 ft | 8 kts | 100° |
| 2026-05-08 04:14 | 24.45252 | 54.64803 | 83 ft | 19 kts | 101° |
| 2026-05-08 04:14 | 24.45212 | 54.64941 | 84 ft | 19 kts | 112° |
| 2026-05-08 04:15 | 24.45140 | 54.65061 | 85 ft | 19 kts | 128° |
| 2026-05-08 04:15 | 24.45058 | 54.65176 | 85 ft | 19 kts | 128° |
| 2026-05-08 04:15 | 24.44977 | 54.65291 | 86 ft | 19 kts | 128° |
| 2026-05-08 04:15 | 24.44899 | 54.65400 | 85 ft | 13 kts | 128° |
| 2026-05-08 04:16 | 24.44836 | 54.65459 | 86 ft | 12 kts | 166° |
| 2026-05-08 04:16 | 24.44761 | 54.65423 | 85 ft | 12 kts | 218° |
| 2026-05-08 04:16 | 24.44682 | 54.65357 | 87 ft | 17 kts | 218° |
| 2026-05-08 04:16 | 24.44585 | 54.65274 | 86 ft | 18 kts | 218° |
| 2026-05-08 04:17 | 24.44489 | 54.65192 | 85 ft | 18 kts | 218° |
| 2026-05-08 04:17 | 24.44392 | 54.65109 | 86 ft | 18 kts | 217° |
| 2026-05-08 04:17 | 24.44293 | 54.65026 | 87 ft | 18 kts | 217° |
| 2026-05-08 04:17 | 24.44196 | 54.64944 | 86 ft | 18 kts | 218° |
| 2026-05-08 04:18 | 24.44098 | 54.64861 | 86 ft | 18 kts | 217° |
| 2026-05-08 04:18 | 24.44000 | 54.64779 | 86 ft | 18 kts | 218° |
| 2026-05-08 04:18 | 24.43917 | 54.64743 | 84 ft | 13 kts | 161° |
| 2026-05-08 04:18 | 24.43856 | 54.64809 | 84 ft | 13 kts | 128° |
| 2026-05-08 04:19 | 24.43798 | 54.64891 | 83 ft | 15 kts | 128° |
| 2026-05-08 04:19 | 24.43725 | 54.64993 | 84 ft | 19 kts | 127° |
| 2026-05-08 04:19 | 24.43639 | 54.65115 | 86 ft | 22 kts | 128° |
| 2026-05-08 04:19 | 24.43541 | 54.65255 | 84 ft | 24 kts | 128° |
| 2026-05-08 04:20 | 24.43430 | 54.65409 | 85 ft | 27 kts | 128° |
| 2026-05-08 04:20 | 24.43309 | 54.65579 | 86 ft | 29 kts | 128° |
| 2026-05-08 04:20 | 24.43178 | 54.65763 | 85 ft | 31 kts | 128° |
| 2026-05-08 04:20 | 24.43047 | 54.65947 | 84 ft | 30 kts | 128° |
| 2026-05-08 04:21 | 24.42919 | 54.66128 | 86 ft | 30 kts | 128° |
| 2026-05-08 04:21 | 24.42790 | 54.66308 | 84 ft | 30 kts | 128° |
| 2026-05-08 04:21 | 24.42665 | 54.66486 | 85 ft | 29 kts | 128° |
| 2026-05-08 04:21 | 24.42545 | 54.66655 | 84 ft | 25 kts | 128° |
| 2026-05-08 04:22 | 24.42474 | 54.66756 | 86 ft | 14 kts | 127° |
| 2026-05-08 04:22 | 24.42417 | 54.66834 | 85 ft | 13 kts | 128° |
| 2026-05-08 04:22 | 24.42336 | 54.66838 | 84 ft | 13 kts | 211° |
| 2026-05-08 04:22 | 24.42262 | 54.66780 | 84 ft | 13 kts | 217° |
| 2026-05-08 04:23 | 24.42203 | 54.66708 | 83 ft | 13 kts | 261° |
| 2026-05-08 04:23 | 24.42241 | 54.66619 | 82 ft | 15 kts | 307° |
| 2026-05-08 04:23 | 24.42383 | 54.66418 | 86 ft | 62 kts | 308° |
| 2026-05-08 04:23 | 24.42795 | 54.65839 | 87 ft | 131 kts | 308° |
| 2026-05-08 04:24 | 24.43474 | 54.64876 | 93 ft | 183 kts | 307° |
| 2026-05-08 04:24 | 24.44262 | 54.63758 | 584 ft | 186 kts | 306° |
| 2026-05-08 04:24 | 24.45060 | 54.62642 | 1233 ft | 182 kts | 308° |
| 2026-05-08 04:24 | 24.45877 | 54.61501 | 1599 ft | 201 kts | 308° |
| 2026-05-08 04:25 | 24.46792 | 54.60221 | 1809 ft | 224 kts | 308° |
| 2026-05-08 04:25 | 24.47760 | 54.58850 | 2348 ft | 231 kts | 307° |
| 2026-05-08 04:25 | 24.48771 | 54.57423 | 2866 ft | 240 kts | 307° |
| 2026-05-08 04:25 | 24.49800 | 54.55970 | 3529 ft | 242 kts | 306° |
| 2026-05-08 04:26 | 24.50838 | 54.54502 | 4234 ft | 244 kts | 306° |
| 2026-05-08 04:26 | 24.51874 | 54.53037 | 4883 ft | 248 kts | 306° |
| 2026-05-08 04:26 | 24.52936 | 54.51534 | 5563 ft | 249 kts | 306° |
| 2026-05-08 04:26 | 24.54004 | 54.50024 | 6204 ft | 251 kts | 307° |
| 2026-05-08 04:27 | 24.55090 | 54.48491 | 6739 ft | 257 kts | 307° |
| 2026-05-08 04:27 | 24.56198 | 54.46926 | 7316 ft | 261 kts | 307° |
| 2026-05-08 04:27 | 24.57315 | 54.45345 | 7943 ft | 263 kts | 306° |
| 2026-05-08 04:27 | 24.58441 | 54.43750 | 8549 ft | 266 kts | 306° |
| 2026-05-08 04:28 | 24.59792 | 54.42356 | 8977 ft | 272 kts | 331° |
| 2026-05-08 04:28 | 24.61616 | 54.41839 | 8986 ft | 281 kts | 4° |
| 2026-05-08 04:28 | 24.63463 | 54.42481 | 9021 ft | 280 kts | 31° |
| 2026-05-08 04:28 | 24.65120 | 54.43615 | 9022 ft | 281 kts | 31° |
| 2026-05-08 04:29 | 24.66791 | 54.44747 | 9015 ft | 282 kts | 31° |
| 2026-05-08 04:29 | 24.68461 | 54.45868 | 9007 ft | 281 kts | 31° |
| 2026-05-08 04:29 | 24.70126 | 54.46980 | 9008 ft | 280 kts | 31° |
| 2026-05-08 04:29 | 24.71789 | 54.48087 | 8998 ft | 279 kts | 31° |
| 2026-05-08 04:30 | 24.73330 | 54.49330 | 8988 ft | 273 kts | 51° |
| 2026-05-08 04:30 | 24.74239 | 54.51131 | 9032 ft | 276 kts | 68° |
| 2026-05-08 04:30 | 24.75001 | 54.53103 | 9038 ft | 284 kts | 66° |
| 2026-05-08 04:30 | 24.75801 | 54.55097 | 9020 ft | 285 kts | 66° |
| 2026-05-08 04:31 | 24.76598 | 54.57079 | 9013 ft | 281 kts | 66° |
| 2026-05-08 04:31 | 24.77388 | 54.59049 | 9026 ft | 282 kts | 66° |
| 2026-05-08 04:31 | 24.78202 | 54.61083 | 9299 ft | 297 kts | 67° |
| 2026-05-08 04:31 | 24.79043 | 54.63185 | 9833 ft | 303 kts | 67° |
| 2026-05-08 04:32 | 24.79883 | 54.65310 | 10438 ft | 303 kts | 71° |
| 2026-05-08 04:32 | 24.80195 | 54.67580 | 10983 ft | 301 kts | 99° |
| 2026-05-08 04:32 | 24.79638 | 54.69749 | 11723 ft | 297 kts | 113° |
| 2026-05-08 04:32 | 24.78869 | 54.71857 | 12578 ft | 296 kts | 113° |
| 2026-05-08 04:33 | 24.78112 | 54.73957 | 13557 ft | 293 kts | 112° |
| 2026-05-08 04:33 | 24.77363 | 54.76047 | 14345 ft | 295 kts | 113° |
| 2026-05-08 04:33 | 24.76546 | 54.78130 | 14973 ft | 299 kts | 123° |
| 2026-05-08 04:33 | 24.75099 | 54.79797 | 15502 ft | 307 kts | 147° |
| 2026-05-08 04:34 | 24.73110 | 54.80696 | 16048 ft | 319 kts | 167° |
| 2026-05-08 04:34 | 24.70803 | 54.80747 | 16198 ft | 347 kts | 191° |
| 2026-05-08 04:34 | 24.68437 | 54.79914 | 16366 ft | 368 kts | 198° |
| 2026-05-08 04:34 | 24.65980 | 54.78944 | 16531 ft | 390 kts | 197° |
| 2026-05-08 04:35 | 24.63340 | 54.78070 | 16651 ft | 402 kts | 186° |
| 2026-05-08 04:35 | 24.60537 | 54.78210 | 17014 ft | 410 kts | 164° |
| 2026-05-08 04:35 | 24.57898 | 54.79410 | 17610 ft | 414 kts | 148° |
| 2026-05-08 04:35 | 24.55667 | 54.81407 | 18171 ft | 415 kts | 135° |
| 2026-05-08 04:36 | 24.53592 | 54.83656 | 18613 ft | 423 kts | 135° |
| 2026-05-08 04:36 | 24.51485 | 54.85944 | 19155 ft | 427 kts | 135° |
| 2026-05-08 04:36 | 24.50073 | 54.87469 | 19561 ft | 429 kts | 136° |
| 2026-05-08 04:36 | 24.47929 | 54.89765 | 20131 ft | 432 kts | 136° |
| 2026-05-08 04:37 | 24.45751 | 54.92080 | 20665 ft | 437 kts | 136° |
| 2026-05-08 04:37 | 24.43549 | 54.94407 | 21186 ft | 442 kts | 137° |
| 2026-05-08 04:37 | 24.41319 | 54.96755 | 21703 ft | 446 kts | 137° |
| 2026-05-08 04:37 | 24.39068 | 54.99125 | 22218 ft | 451 kts | 137° |
| 2026-05-08 04:38 | 24.36789 | 55.01521 | 22733 ft | 455 kts | 137° |
| 2026-05-08 04:38 | 24.34498 | 55.03931 | 23224 ft | 458 kts | 137° |
| 2026-05-08 04:38 | 24.32250 | 55.06375 | 23664 ft | 463 kts | 133° |
| 2026-05-08 04:38 | 24.30406 | 55.09291 | 24031 ft | 469 kts | 120° |
| 2026-05-08 04:39 | 24.28869 | 55.12468 | 24433 ft | 472 kts | 118° |
| 2026-05-08 04:39 | 24.27349 | 55.15672 | 24839 ft | 475 kts | 119° |
| 2026-05-08 04:39 | 24.25789 | 55.18882 | 25224 ft | 479 kts | 120° |
| 2026-05-08 04:39 | 24.24180 | 55.22091 | 25604 ft | 482 kts | 121° |
| 2026-05-08 04:40 | 24.22535 | 55.25306 | 25981 ft | 485 kts | 121° |
| 2026-05-08 04:40 | 24.20866 | 55.28543 | 26358 ft | 488 kts | 121° |
| 2026-05-08 04:40 | 24.19190 | 55.31793 | 26739 ft | 491 kts | 121° |
| 2026-05-08 04:40 | 24.17535 | 55.35031 | 27107 ft | 495 kts | 120° |
| 2026-05-08 04:41 | 24.16038 | 55.38441 | 27457 ft | 499 kts | 115° |
| 2026-05-08 04:41 | 24.14710 | 55.41966 | 27808 ft | 503 kts | 113° |
| 2026-05-08 04:41 | 24.13427 | 55.45539 | 28147 ft | 506 kts | 113° |
| 2026-05-08 04:41 | 24.12118 | 55.49133 | 28466 ft | 508 kts | 114° |
| 2026-05-08 04:42 | 24.10769 | 55.52721 | 28792 ft | 511 kts | 114° |
| 2026-05-08 04:42 | 24.09383 | 55.56314 | 29100 ft | 513 kts | 115° |
| 2026-05-08 04:42 | 24.07974 | 55.59934 | 29392 ft | 516 kts | 115° |
| 2026-05-08 04:42 | 24.06563 | 55.63556 | 29662 ft | 519 kts | 115° |
| 2026-05-08 04:43 | 24.05022 | 55.67129 | 29916 ft | 520 kts | 119° |
| 2026-05-08 04:43 | 24.03349 | 55.70638 | 30202 ft | 520 kts | 120° |
| 2026-05-08 04:43 | 24.01673 | 55.74098 | 30564 ft | 518 kts | 120° |
| 2026-05-08 04:43 | 23.99988 | 55.77576 | 30959 ft | 516 kts | 120° |
| 2026-05-08 04:44 | 23.98312 | 55.81051 | 31376 ft | 514 kts | 120° |
| 2026-05-08 04:44 | 23.96654 | 55.84509 | 31764 ft | 513 kts | 120° |
| 2026-05-08 04:44 | 23.94999 | 55.87973 | 32084 ft | 513 kts | 120° |
| 2026-05-08 04:44 | 23.93369 | 55.91387 | 32429 ft | 512 kts | 120° |
| 2026-05-08 04:45 | 23.91722 | 55.94835 | 32797 ft | 511 kts | 120° |
| 2026-05-08 04:45 | 23.90077 | 55.98273 | 33159 ft | 510 kts | 120° |
| 2026-05-08 04:45 | 23.88430 | 56.01710 | 33515 ft | 509 kts | 120° |
| 2026-05-08 04:45 | 23.86790 | 56.05131 | 33866 ft | 508 kts | 120° |
| 2026-05-08 04:46 | 23.85152 | 56.08543 | 34169 ft | 506 kts | 120° |
| 2026-05-08 04:46 | 23.83519 | 56.11944 | 34484 ft | 505 kts | 120° |
| 2026-05-08 04:46 | 23.81887 | 56.15344 | 34771 ft | 504 kts | 120° |
| 2026-05-08 04:46 | 23.80256 | 56.18737 | 34858 ft | 508 kts | 120° |
| 2026-05-08 04:47 | 23.76967 | 56.25573 | 34915 ft | 507 kts | 120° |
| 2026-05-08 04:47 | 23.73704 | 56.32353 | 34915 ft | 502 kts | 120° |
| 2026-05-08 04:48 | 23.70456 | 56.39088 | 34922 ft | 501 kts | 120° |
| 2026-05-08 04:48 | 23.67227 | 56.45772 | 34927 ft | 500 kts | 120° |
| 2026-05-08 04:49 | 23.63981 | 56.52482 | 34931 ft | 500 kts | 120° |
| 2026-05-08 04:49 | 23.60725 | 56.59206 | 34927 ft | 501 kts | 120° |
| 2026-05-08 04:50 | 23.57458 | 56.65942 | 34934 ft | 502 kts | 120° |
| 2026-05-08 04:50 | 23.54185 | 56.72681 | 34936 ft | 504 kts | 120° |
| 2026-05-08 04:51 | 23.50906 | 56.79425 | 34934 ft | 504 kts | 120° |
| 2026-05-08 04:51 | 23.47636 | 56.86140 | 34925 ft | 504 kts | 120° |
| 2026-05-08 04:52 | 23.44343 | 56.92895 | 34927 ft | 504 kts | 120° |
| 2026-05-08 04:52 | 23.41051 | 56.99638 | 34934 ft | 503 kts | 120° |
| 2026-05-08 04:53 | 23.37760 | 57.06371 | 34927 ft | 503 kts | 120° |
| 2026-05-08 04:53 | 23.34609 | 57.13123 | 34932 ft | 503 kts | 118° |
| 2026-05-08 04:54 | 23.31546 | 57.19990 | 34920 ft | 504 kts | 117° |
| 2026-05-08 04:54 | 23.28475 | 57.26843 | 34950 ft | 503 kts | 118° |
| 2026-05-08 04:55 | 23.25381 | 57.33670 | 34937 ft | 503 kts | 118° |
| 2026-05-08 04:55 | 23.22283 | 57.40482 | 34945 ft | 502 kts | 118° |
| 2026-05-08 04:56 | 23.19179 | 57.47295 | 34938 ft | 502 kts | 118° |
| 2026-05-08 04:56 | 23.16099 | 57.54048 | 34938 ft | 502 kts | 118° |
| 2026-05-08 04:57 | 23.12991 | 57.60857 | 34933 ft | 502 kts | 118° |
| 2026-05-08 04:57 | 23.09882 | 57.67661 | 34933 ft | 502 kts | 118° |
| 2026-05-08 04:58 | 23.06772 | 57.74456 | 34919 ft | 502 kts | 118° |
| 2026-05-08 04:58 | 23.03722 | 57.81245 | 34908 ft | 503 kts | 113° |
| 2026-05-08 04:59 | 23.01928 | 57.88592 | 34905 ft | 506 kts | 99° |
| 2026-05-08 04:59 | 23.01677 | 57.96236 | 34900 ft | 507 kts | 90° |
| 2026-05-08 05:00 | 23.01780 | 58.03897 | 34882 ft | 508 kts | 90° |
| 2026-05-08 05:00 | 23.01825 | 58.11573 | 34880 ft | 508 kts | 91° |
| 2026-05-08 05:01 | 23.01823 | 58.19243 | 34870 ft | 508 kts | 91° |
| 2026-05-08 05:01 | 23.01812 | 58.26913 | 34865 ft | 508 kts | 91° |
| 2026-05-08 05:02 | 23.01804 | 58.34579 | 34866 ft | 508 kts | 91° |
| 2026-05-08 05:02 | 23.01865 | 58.42200 | 34857 ft | 508 kts | 89° |
| 2026-05-08 05:03 | 23.02159 | 58.49867 | 34865 ft | 508 kts | 88° |
| 2026-05-08 05:03 | 23.02469 | 58.57532 | 34858 ft | 507 kts | 88° |
| 2026-05-08 05:04 | 23.02736 | 58.65194 | 34853 ft | 507 kts | 88° |
| 2026-05-08 05:04 | 23.02981 | 58.72842 | 34835 ft | 507 kts | 89° |
| 2026-05-08 05:05 | 23.03222 | 58.80435 | 34838 ft | 507 kts | 89° |
| 2026-05-08 05:05 | 23.03464 | 58.88089 | 34822 ft | 507 kts | 89° |
| 2026-05-08 05:06 | 23.03704 | 58.95741 | 34828 ft | 506 kts | 89° |
| 2026-05-08 05:06 | 23.03935 | 59.03397 | 34834 ft | 507 kts | 89° |
| 2026-05-08 05:07 | 23.04157 | 59.10995 | 34823 ft | 506 kts | 89° |
| 2026-05-08 05:07 | 23.04377 | 59.18643 | 34810 ft | 505 kts | 89° |
| 2026-05-08 05:08 | 23.04594 | 59.26284 | 34803 ft | 505 kts | 89° |
| 2026-05-08 05:08 | 23.04805 | 59.33859 | 34802 ft | 505 kts | 89° |
| 2026-05-08 05:09 | 23.04995 | 59.41500 | 34792 ft | 505 kts | 89° |
| 2026-05-08 05:09 | 23.05110 | 59.49120 | 34789 ft | 505 kts | 90° |
| 2026-05-08 05:10 | 23.05272 | 59.60556 | 34793 ft | 505 kts | 89° |
| 2026-05-08 05:11 | 23.05387 | 59.68141 | 34786 ft | 505 kts | 89° |
| 2026-05-08 05:11 | 23.05500 | 59.75773 | 34792 ft | 506 kts | 89° |
| 2026-05-08 05:12 | 23.05608 | 59.83421 | 34798 ft | 506 kts | 89° |
| 2026-05-08 05:12 | 23.05713 | 59.91065 | 34801 ft | 506 kts | 89° |
| 2026-05-08 05:13 | 23.05803 | 59.98716 | 34803 ft | 506 kts | 89° |
| 2026-05-08 05:13 | 23.05885 | 60.06361 | 34806 ft | 506 kts | 89° |
| 2026-05-08 05:14 | 23.05965 | 60.13950 | 34805 ft | 506 kts | 89° |
| 2026-05-08 05:14 | 23.06042 | 60.21602 | 34807 ft | 506 kts | 89° |
| 2026-05-08 05:15 | 23.06117 | 60.29258 | 34802 ft | 506 kts | 89° |
| 2026-05-08 05:15 | 23.06187 | 60.36900 | 34805 ft | 506 kts | 89° |
| 2026-05-08 05:16 | 23.06253 | 60.44509 | 34809 ft | 506 kts | 90° |
| 2026-05-08 05:16 | 23.06316 | 60.52154 | 34808 ft | 506 kts | 89° |
| 2026-05-08 05:17 | 23.06366 | 60.58515 | 34804 ft | 506 kts | 89° |
| 2026-05-08 05:17 | 23.06424 | 60.66153 | 34806 ft | 506 kts | 89° |
| 2026-05-08 05:18 | 23.06485 | 60.73810 | 34806 ft | 506 kts | 89° |
| 2026-05-08 05:18 | 23.06545 | 60.81448 | 34807 ft | 506 kts | 89° |
| 2026-05-08 05:19 | 23.06600 | 60.89086 | 34809 ft | 506 kts | 89° |
| 2026-05-08 05:19 | 23.06651 | 60.96699 | 34808 ft | 506 kts | 89° |
| 2026-05-08 05:20 | 23.06698 | 61.04338 | 34809 ft | 506 kts | 89° |
| 2026-05-08 05:20 | 23.06742 | 61.11948 | 34809 ft | 506 kts | 89° |
| 2026-05-08 05:21 | 23.06782 | 61.19594 | 34807 ft | 506 kts | 89° |
| 2026-05-08 05:21 | 23.06818 | 61.27244 | 34803 ft | 507 kts | 89° |
| 2026-05-08 05:22 | 23.06851 | 61.34906 | 34804 ft | 507 kts | 89° |
| 2026-05-08 05:22 | 23.06880 | 61.42525 | 34809 ft | 507 kts | 89° |
| 2026-05-08 05:23 | 23.06907 | 61.50200 | 34810 ft | 507 kts | 89° |
| 2026-05-08 05:23 | 23.06940 | 61.57876 | 34808 ft | 508 kts | 89° |
| 2026-05-08 05:24 | 23.06972 | 61.65553 | 34813 ft | 508 kts | 89° |
| 2026-05-08 05:24 | 23.06999 | 61.73218 | 34810 ft | 507 kts | 89° |
| 2026-05-08 05:25 | 23.07011 | 61.80831 | 34804 ft | 507 kts | 90° |
| 2026-05-08 05:25 | 23.07011 | 61.88503 | 34805 ft | 507 kts | 90° |
| 2026-05-08 05:26 | 23.07007 | 61.96173 | 34808 ft | 507 kts | 90° |
| 2026-05-08 05:26 | 23.07002 | 62.03836 | 34811 ft | 508 kts | 90° |
| 2026-05-08 05:27 | 23.06994 | 62.11503 | 34811 ft | 508 kts | 90° |
| 2026-05-08 05:27 | 23.06983 | 62.19131 | 34812 ft | 508 kts | 90° |
| 2026-05-08 05:28 | 23.06967 | 62.26807 | 34810 ft | 508 kts | 90° |
| 2026-05-08 05:28 | 23.06948 | 62.34484 | 34812 ft | 508 kts | 90° |
| 2026-05-08 05:29 | 23.06925 | 62.42169 | 34811 ft | 509 kts | 90° |
| 2026-05-08 05:29 | 23.06898 | 62.49873 | 34811 ft | 509 kts | 90° |
| 2026-05-08 05:30 | 23.06867 | 62.57562 | 34807 ft | 509 kts | 89° |
| 2026-05-08 05:30 | 23.06833 | 62.65253 | 34812 ft | 510 kts | 90° |
| 2026-05-08 05:31 | 23.06795 | 62.72896 | 34815 ft | 510 kts | 90° |
| 2026-05-08 05:31 | 23.06753 | 62.80608 | 34813 ft | 510 kts | 90° |
| 2026-05-08 05:32 | 23.06708 | 62.88314 | 34816 ft | 510 kts | 90° |
| 2026-05-08 05:32 | 23.06659 | 62.96018 | 34817 ft | 510 kts | 89° |
| 2026-05-08 05:33 | 23.06606 | 63.03721 | 34814 ft | 509 kts | 90° |
| 2026-05-08 05:33 | 23.06549 | 63.11411 | 34815 ft | 509 kts | 90° |
| 2026-05-08 05:34 | 23.06489 | 63.19063 | 34817 ft | 509 kts | 89° |
| 2026-05-08 05:34 | 23.06425 | 63.26760 | 34819 ft | 509 kts | 90° |
| 2026-05-08 05:35 | 23.06357 | 63.34465 | 34824 ft | 509 kts | 89° |
| 2026-05-08 05:35 | 23.06286 | 63.42155 | 34820 ft | 509 kts | 89° |
| 2026-05-08 05:36 | 23.06211 | 63.49804 | 34819 ft | 509 kts | 89° |
| 2026-05-08 05:36 | 23.06132 | 63.57499 | 34819 ft | 509 kts | 89° |
| 2026-05-08 05:37 | 23.06050 | 63.65216 | 34822 ft | 509 kts | 90° |
| 2026-05-08 05:37 | 23.05964 | 63.72864 | 34821 ft | 510 kts | 90° |
| 2026-05-08 05:38 | 23.05875 | 63.80559 | 34825 ft | 510 kts | 89° |
| 2026-05-08 05:38 | 23.05701 | 63.88270 | 34819 ft | 510 kts | 94° |
| 2026-05-08 05:39 | 23.04939 | 63.95928 | 34830 ft | 510 kts | 96° |
| 2026-05-08 05:39 | 23.04115 | 64.03547 | 34825 ft | 510 kts | 96° |
| 2026-05-08 05:40 | 23.03313 | 64.11207 | 34824 ft | 511 kts | 95° |
| 2026-05-08 05:40 | 23.02528 | 64.18884 | 34826 ft | 511 kts | 95° |
| 2026-05-08 05:41 | 23.01742 | 64.26566 | 34831 ft | 512 kts | 95° |
| 2026-05-08 05:41 | 23.00954 | 64.34218 | 34832 ft | 512 kts | 95° |
| 2026-05-08 05:42 | 23.00156 | 64.41913 | 34825 ft | 512 kts | 95° |
| 2026-05-08 05:42 | 22.99354 | 64.49611 | 34830 ft | 513 kts | 95° |
| 2026-05-08 05:43 | 22.98552 | 64.57271 | 34829 ft | 513 kts | 95° |
| 2026-05-08 05:43 | 22.97742 | 64.64968 | 34831 ft | 513 kts | 95° |
| 2026-05-08 05:44 | 22.96929 | 64.72669 | 34834 ft | 513 kts | 95° |
| 2026-05-08 05:44 | 22.96112 | 64.80366 | 34832 ft | 513 kts | 95° |
| 2026-05-08 05:45 | 22.95727 | 64.88044 | 34839 ft | 511 kts | 88° |
| 2026-05-08 05:45 | 22.95815 | 64.95767 | 34836 ft | 511 kts | 88° |
| 2026-05-08 05:46 | 22.95909 | 65.03493 | 34827 ft | 512 kts | 88° |
| 2026-05-08 05:46 | 22.95966 | 65.11224 | 34833 ft | 512 kts | 88° |
| 2026-05-08 05:47 | 22.96001 | 65.18950 | 34835 ft | 512 kts | 88° |
| 2026-05-08 05:47 | 22.96030 | 65.26626 | 34839 ft | 511 kts | 88° |
| 2026-05-08 05:48 | 22.96057 | 65.34338 | 34833 ft | 511 kts | 88° |
| 2026-05-08 05:48 | 22.96082 | 65.42057 | 34835 ft | 511 kts | 88° |
| 2026-05-08 05:49 | 22.96103 | 65.49732 | 34834 ft | 511 kts | 88° |
| 2026-05-08 05:49 | 22.96121 | 65.57435 | 34836 ft | 511 kts | 88° |
| 2026-05-08 05:50 | 22.96135 | 65.65159 | 34835 ft | 512 kts | 88° |
| 2026-05-08 05:50 | 22.96145 | 65.72882 | 34837 ft | 512 kts | 88° |
| 2026-05-08 05:51 | 22.96152 | 65.80587 | 34836 ft | 513 kts | 88° |
| 2026-05-08 05:51 | 22.96154 | 65.88326 | 34837 ft | 513 kts | 88° |
| 2026-05-08 05:52 | 22.96153 | 65.96062 | 34839 ft | 513 kts | 88° |
| 2026-05-08 05:52 | 22.96148 | 66.03833 | 34839 ft | 514 kts | 88° |
| 2026-05-08 05:53 | 22.96139 | 66.11601 | 34837 ft | 514 kts | 88° |
| 2026-05-08 05:53 | 22.96127 | 66.19364 | 34841 ft | 514 kts | 88° |
| 2026-05-08 05:54 | 22.96111 | 66.27076 | 34845 ft | 515 kts | 88° |
| 2026-05-08 05:54 | 22.96091 | 66.34856 | 34841 ft | 515 kts | 88° |
| 2026-05-08 05:55 | 22.96067 | 66.42630 | 34842 ft | 515 kts | 88° |
| 2026-05-08 05:55 | 22.96039 | 66.50415 | 34841 ft | 515 kts | 88° |
| 2026-05-08 05:56 | 22.96008 | 66.58206 | 34845 ft | 515 kts | 88° |
| 2026-05-08 05:56 | 22.95973 | 66.65942 | 34843 ft | 516 kts | 88° |
| 2026-05-08 05:57 | 22.95934 | 66.73736 | 34845 ft | 516 kts | 88° |
| 2026-05-08 05:57 | 22.95891 | 66.81531 | 34847 ft | 516 kts | 88° |
| 2026-05-08 05:58 | 22.95845 | 66.89310 | 34846 ft | 516 kts | 88° |
| 2026-05-08 05:58 | 22.95796 | 66.97066 | 34849 ft | 516 kts | 88° |
| 2026-05-08 05:59 | 22.95798 | 67.04885 | 34850 ft | 516 kts | 87° |
| 2026-05-08 05:59 | 22.95829 | 67.12641 | 34847 ft | 516 kts | 88° |
| 2026-05-08 06:00 | 22.95850 | 67.20425 | 34850 ft | 516 kts | 88° |
| 2026-05-08 06:00 | 22.95859 | 67.26951 | 34852 ft | 516 kts | 88° |
| 2026-05-08 06:01 | 22.95863 | 67.34740 | 34855 ft | 516 kts | 88° |
| 2026-05-08 06:01 | 22.95864 | 67.42491 | 34852 ft | 516 kts | 88° |
| 2026-05-08 06:02 | 22.95861 | 67.50292 | 34855 ft | 516 kts | 88° |
| 2026-05-08 06:02 | 22.95855 | 67.58094 | 34857 ft | 517 kts | 88° |
| 2026-05-08 06:03 | 22.95846 | 67.65893 | 34854 ft | 517 kts | 88° |
| 2026-05-08 06:03 | 22.95832 | 67.73659 | 34856 ft | 517 kts | 88° |
| 2026-05-08 06:04 | 22.95815 | 67.81473 | 34854 ft | 517 kts | 88° |
| 2026-05-08 06:04 | 22.95796 | 67.89289 | 34855 ft | 517 kts | 88° |
| 2026-05-08 06:05 | 22.95803 | 67.97096 | 34854 ft | 517 kts | 87° |
| 2026-05-08 06:05 | 22.95816 | 68.04907 | 34855 ft | 517 kts | 88° |
| 2026-05-08 06:06 | 22.95820 | 68.12669 | 34855 ft | 517 kts | 88° |
| 2026-05-08 06:06 | 22.95818 | 68.20493 | 34861 ft | 517 kts | 88° |
| 2026-05-08 06:07 | 22.95812 | 68.28268 | 34860 ft | 518 kts | 88° |
| 2026-05-08 06:07 | 22.95803 | 68.36084 | 34863 ft | 518 kts | 88° |
| 2026-05-08 06:08 | 22.95527 | 68.43921 | 34864 ft | 519 kts | 91° |
| 2026-05-08 06:08 | 22.95041 | 68.51740 | 34863 ft | 520 kts | 91° |
| 2026-05-08 06:09 | 22.94547 | 68.59575 | 34866 ft | 520 kts | 91° |
| 2026-05-08 06:09 | 22.94080 | 68.67367 | 34867 ft | 521 kts | 91° |
| 2026-05-08 06:10 | 22.93619 | 68.75201 | 34866 ft | 521 kts | 91° |
| 2026-05-08 06:10 | 22.93153 | 68.83058 | 34866 ft | 521 kts | 91° |
| 2026-05-08 06:11 | 22.92681 | 68.90928 | 34861 ft | 522 kts | 91° |
| 2026-05-08 06:11 | 22.92208 | 68.98735 | 34870 ft | 521 kts | 91° |
| 2026-05-08 06:12 | 22.91728 | 69.06582 | 34864 ft | 521 kts | 91° |
| 2026-05-08 06:12 | 22.91245 | 69.14433 | 34865 ft | 521 kts | 91° |
| 2026-05-08 06:13 | 22.90757 | 69.22296 | 34862 ft | 521 kts | 91° |
| 2026-05-08 06:13 | 22.90270 | 69.30082 | 34870 ft | 521 kts | 91° |
| 2026-05-08 06:14 | 22.89775 | 69.37926 | 34869 ft | 521 kts | 91° |
| 2026-05-08 06:14 | 22.89276 | 69.45777 | 34871 ft | 522 kts | 91° |
| 2026-05-08 06:15 | 22.88772 | 69.53642 | 34881 ft | 522 kts | 91° |
| 2026-05-08 06:15 | 22.88265 | 69.61511 | 34877 ft | 523 kts | 91° |
| 2026-05-08 06:16 | 22.87752 | 69.69401 | 34876 ft | 524 kts | 91° |
| 2026-05-08 06:16 | 22.87269 | 69.77293 | 34874 ft | 525 kts | 91° |
| 2026-05-08 06:17 | 22.86596 | 69.89107 | 34875 ft | 525 kts | 91° |
| 2026-05-08 06:17 | 22.86137 | 69.97013 | 34876 ft | 526 kts | 91° |
| 2026-05-08 06:18 | 22.85665 | 70.04949 | 34877 ft | 527 kts | 91° |
| 2026-05-08 06:18 | 22.85190 | 70.12875 | 34869 ft | 528 kts | 91° |
| 2026-05-08 06:19 | 22.84709 | 70.20832 | 34881 ft | 528 kts | 91° |
| 2026-05-08 06:19 | 22.84225 | 70.28790 | 34876 ft | 529 kts | 91° |
| 2026-05-08 06:20 | 22.83737 | 70.36738 | 34883 ft | 529 kts | 91° |
| 2026-05-08 06:20 | 22.83243 | 70.44712 | 34880 ft | 530 kts | 91° |
| 2026-05-08 06:21 | 22.82750 | 70.52622 | 34876 ft | 529 kts | 91° |
| 2026-05-08 06:21 | 22.82249 | 70.60581 | 34878 ft | 528 kts | 91° |
| 2026-05-08 06:22 | 22.81746 | 70.68523 | 34875 ft | 528 kts | 91° |
| 2026-05-08 06:22 | 22.81240 | 70.76466 | 34873 ft | 527 kts | 91° |
| 2026-05-08 06:23 | 22.81057 | 70.84402 | 34881 ft | 524 kts | 84° |
| 2026-05-08 06:23 | 22.82034 | 70.92201 | 34888 ft | 521 kts | 77° |
| 2026-05-08 06:24 | 22.83267 | 70.99923 | 34880 ft | 523 kts | 77° |
| 2026-05-08 06:24 | 22.84477 | 71.07739 | 34870 ft | 525 kts | 77° |
| 2026-05-08 06:25 | 22.85643 | 71.15510 | 34866 ft | 526 kts | 77° |
| 2026-05-08 06:25 | 22.86804 | 71.23339 | 34865 ft | 526 kts | 78° |
| 2026-05-08 06:26 | 22.87965 | 71.31185 | 34860 ft | 526 kts | 78° |
| 2026-05-08 06:26 | 22.89122 | 71.39020 | 34860 ft | 526 kts | 78° |
| 2026-05-08 06:27 | 22.90270 | 71.46808 | 34859 ft | 526 kts | 78° |
| 2026-05-08 06:27 | 22.91419 | 71.54637 | 34860 ft | 525 kts | 78° |
| 2026-05-08 06:28 | 22.92567 | 71.62478 | 34853 ft | 526 kts | 78° |
| 2026-05-08 06:28 | 22.93710 | 71.70318 | 34855 ft | 526 kts | 78° |
| 2026-05-08 06:29 | 22.94851 | 71.78174 | 34856 ft | 527 kts | 78° |
| 2026-05-08 06:29 | 22.95981 | 71.85981 | 34847 ft | 527 kts | 78° |
| 2026-05-08 06:30 | 22.97117 | 71.93862 | 34850 ft | 528 kts | 77° |
| 2026-05-08 06:30 | 22.98251 | 72.01746 | 34845 ft | 529 kts | 78° |
| 2026-05-08 06:31 | 22.99376 | 72.09602 | 34843 ft | 529 kts | 78° |
| 2026-05-08 06:31 | 23.00506 | 72.17522 | 34836 ft | 530 kts | 78° |
| 2026-05-08 06:32 | 23.01631 | 72.25440 | 34840 ft | 530 kts | 78° |
| 2026-05-08 06:32 | 23.02748 | 72.33322 | 34833 ft | 531 kts | 78° |
| 2026-05-08 06:33 | 23.03869 | 72.41270 | 34832 ft | 532 kts | 78° |
| 2026-05-08 06:33 | 23.04987 | 72.49220 | 34833 ft | 532 kts | 78° |
| 2026-05-08 06:34 | 23.06072 | 72.57173 | 34829 ft | 533 kts | 81° |
| 2026-05-08 06:34 | 23.05915 | 72.65273 | 34833 ft | 540 kts | 96° |
| 2026-05-08 06:35 | 23.04137 | 72.73172 | 34843 ft | 543 kts | 106° |
| 2026-05-08 06:35 | 23.01792 | 72.80982 | 34822 ft | 544 kts | 107° |
| 2026-05-08 06:36 | 22.99474 | 72.88817 | 34829 ft | 544 kts | 106° |
| 2026-05-08 06:36 | 22.97229 | 72.96609 | 34833 ft | 544 kts | 106° |
| 2026-05-08 06:37 | 22.94978 | 73.04466 | 34827 ft | 545 kts | 106° |
| 2026-05-08 06:37 | 22.92717 | 73.12323 | 34831 ft | 545 kts | 106° |
| 2026-05-08 06:38 | 22.90460 | 73.20137 | 34833 ft | 545 kts | 106° |
| 2026-05-08 06:38 | 22.88182 | 73.28005 | 34833 ft | 545 kts | 106° |
| 2026-05-08 06:39 | 22.85906 | 73.35856 | 34840 ft | 546 kts | 107° |
| 2026-05-08 06:39 | 22.83621 | 73.43697 | 34843 ft | 545 kts | 107° |
| 2026-05-08 06:40 | 22.81717 | 73.50201 | 34833 ft | 544 kts | 107° |
| 2026-05-08 06:40 | 22.79430 | 73.58010 | 34836 ft | 543 kts | 107° |
| 2026-05-08 06:41 | 22.77143 | 73.65808 | 34866 ft | 543 kts | 107° |
| 2026-05-08 06:41 | 22.74852 | 73.73608 | 34856 ft | 543 kts | 107° |
| 2026-05-08 06:42 | 22.72557 | 73.81407 | 34863 ft | 543 kts | 107° |
| 2026-05-08 06:42 | 22.70274 | 73.89153 | 34863 ft | 543 kts | 107° |
| 2026-05-08 06:43 | 22.67972 | 73.96946 | 34873 ft | 543 kts | 107° |
| 2026-05-08 06:43 | 22.65660 | 74.04763 | 34877 ft | 544 kts | 107° |
| 2026-05-08 06:44 | 22.63357 | 74.12533 | 34880 ft | 545 kts | 107° |
| 2026-05-08 06:44 | 22.61027 | 74.20343 | 34868 ft | 544 kts | 108° |
| 2026-05-08 06:45 | 22.58706 | 74.28142 | 34888 ft | 543 kts | 107° |
| 2026-05-08 06:45 | 22.56428 | 74.35893 | 34888 ft | 543 kts | 107° |
| 2026-05-08 06:46 | 22.54138 | 74.43680 | 34889 ft | 542 kts | 108° |
| 2026-05-08 06:46 | 22.51843 | 74.51452 | 34888 ft | 542 kts | 108° |
| 2026-05-08 06:47 | 22.49540 | 74.59226 | 34888 ft | 542 kts | 108° |
| 2026-05-08 06:47 | 22.47233 | 74.66997 | 34896 ft | 542 kts | 108° |
| 2026-05-08 06:48 | 22.44924 | 74.74761 | 34893 ft | 542 kts | 108° |
| 2026-05-08 06:48 | 22.42625 | 74.82480 | 34900 ft | 543 kts | 108° |
| 2026-05-08 06:49 | 22.40306 | 74.90247 | 34898 ft | 543 kts | 108° |
| 2026-05-08 06:49 | 22.37982 | 74.98019 | 34900 ft | 542 kts | 108° |
| 2026-05-08 06:50 | 22.35895 | 75.04983 | 34895 ft | 541 kts | 108° |
| 2026-05-08 06:50 | 22.33778 | 75.12038 | 34901 ft | 540 kts | 108° |
| 2026-05-08 06:51 | 22.31457 | 75.19755 | 34899 ft | 540 kts | 108° |
| 2026-05-08 06:51 | 22.29133 | 75.27470 | 34919 ft | 539 kts | 108° |
| 2026-05-08 06:52 | 22.26822 | 75.35124 | 34918 ft | 539 kts | 108° |
| 2026-05-08 06:52 | 22.24493 | 75.42828 | 34920 ft | 539 kts | 109° |
| 2026-05-08 06:53 | 22.22162 | 75.50523 | 34923 ft | 539 kts | 109° |
| 2026-05-08 06:53 | 22.19820 | 75.58239 | 34925 ft | 540 kts | 109° |
| 2026-05-08 06:54 | 22.17490 | 75.65897 | 34921 ft | 540 kts | 109° |
| 2026-05-08 06:54 | 22.15140 | 75.73613 | 34920 ft | 541 kts | 109° |
| 2026-05-08 06:55 | 22.12793 | 75.81302 | 34922 ft | 539 kts | 109° |
| 2026-05-08 06:55 | 22.10441 | 75.88995 | 34919 ft | 538 kts | 109° |
| 2026-05-08 06:56 | 22.08096 | 75.96651 | 34911 ft | 537 kts | 109° |
| 2026-05-08 06:56 | 22.05721 | 76.04238 | 34990 ft | 539 kts | 110° |
| 2026-05-08 06:57 | 22.04460 | 76.08044 | 35253 ft | 538 kts | 110° |
| 2026-05-08 06:57 | 22.03189 | 76.11830 | 35599 ft | 536 kts | 111° |
| 2026-05-08 06:57 | 22.01919 | 76.15606 | 35972 ft | 533 kts | 111° |
| 2026-05-08 06:57 | 22.00662 | 76.19360 | 36316 ft | 532 kts | 111° |
| 2026-05-08 06:58 | 21.99414 | 76.23105 | 36619 ft | 530 kts | 111° |
| 2026-05-08 06:58 | 21.98169 | 76.26855 | 36839 ft | 531 kts | 110° |
| 2026-05-08 06:58 | 21.95684 | 76.34339 | 36908 ft | 533 kts | 110° |
| 2026-05-08 06:59 | 21.93186 | 76.41848 | 36911 ft | 530 kts | 111° |
| 2026-05-08 06:59 | 21.90703 | 76.49297 | 36900 ft | 527 kts | 111° |
| 2026-05-08 07:00 | 21.88223 | 76.56723 | 36901 ft | 526 kts | 111° |
| 2026-05-08 07:00 | 21.85753 | 76.64117 | 36905 ft | 526 kts | 111° |
| 2026-05-08 07:01 | 21.83274 | 76.71531 | 36907 ft | 526 kts | 111° |
| 2026-05-08 07:01 | 21.80802 | 76.78912 | 36903 ft | 528 kts | 111° |
| 2026-05-08 07:02 | 21.78290 | 76.86403 | 36908 ft | 529 kts | 111° |
| 2026-05-08 07:02 | 21.75798 | 76.93817 | 36904 ft | 531 kts | 111° |
| 2026-05-08 07:03 | 21.73280 | 77.01297 | 36911 ft | 531 kts | 111° |
| 2026-05-08 07:03 | 21.70771 | 77.08740 | 36912 ft | 532 kts | 111° |
| 2026-05-08 07:04 | 21.68243 | 77.16228 | 36918 ft | 532 kts | 111° |
| 2026-05-08 07:04 | 21.65710 | 77.23713 | 36933 ft | 532 kts | 111° |
| 2026-05-08 07:05 | 21.63173 | 77.31204 | 36929 ft | 532 kts | 111° |
| 2026-05-08 07:05 | 21.60640 | 77.38672 | 36929 ft | 532 kts | 111° |
| 2026-05-08 07:06 | 21.58228 | 77.46127 | 36929 ft | 532 kts | 110° |
| 2026-05-08 07:06 | 21.55851 | 77.53666 | 36919 ft | 531 kts | 110° |
| 2026-05-08 07:07 | 21.53453 | 77.61182 | 36931 ft | 531 kts | 110° |
| 2026-05-08 07:07 | 21.51045 | 77.68680 | 36931 ft | 531 kts | 110° |
| 2026-05-08 07:08 | 21.48696 | 77.76201 | 36918 ft | 531 kts | 109° |
| 2026-05-08 07:08 | 21.46395 | 77.83702 | 36921 ft | 531 kts | 109° |
| 2026-05-08 07:09 | 21.44070 | 77.91251 | 36934 ft | 531 kts | 109° |
| 2026-05-08 07:09 | 21.41738 | 77.98772 | 36934 ft | 532 kts | 110° |
| 2026-05-08 07:10 | 21.39408 | 78.06267 | 36927 ft | 532 kts | 110° |
| 2026-05-08 07:10 | 21.37063 | 78.13794 | 36916 ft | 532 kts | 110° |
| 2026-05-08 07:11 | 21.34718 | 78.21313 | 36919 ft | 531 kts | 110° |
| 2026-05-08 07:11 | 21.32368 | 78.28836 | 36923 ft | 531 kts | 110° |
| 2026-05-08 07:12 | 21.30019 | 78.36339 | 36917 ft | 530 kts | 110° |
| 2026-05-08 07:12 | 21.27669 | 78.43835 | 36919 ft | 530 kts | 110° |
| 2026-05-08 07:13 | 21.25314 | 78.51334 | 36915 ft | 530 kts | 110° |
| 2026-05-08 07:13 | 21.22970 | 78.58786 | 36913 ft | 530 kts | 110° |
| 2026-05-08 07:14 | 21.20611 | 78.66275 | 36915 ft | 530 kts | 110° |
| 2026-05-08 07:14 | 21.18248 | 78.73761 | 36917 ft | 530 kts | 110° |
| 2026-05-08 07:15 | 21.15904 | 78.81198 | 36912 ft | 530 kts | 110° |
| 2026-05-08 07:15 | 21.13543 | 78.88689 | 36912 ft | 530 kts | 110° |
| 2026-05-08 07:16 | 21.11182 | 78.96172 | 36913 ft | 530 kts | 110° |
| 2026-05-08 07:16 | 21.08815 | 79.03656 | 36902 ft | 529 kts | 110° |
| 2026-05-08 07:17 | 21.06534 | 79.11149 | 36904 ft | 529 kts | 108° |
| 2026-05-08 07:17 | 21.04421 | 79.18695 | 36904 ft | 529 kts | 108° |
| 2026-05-08 07:18 | 21.02328 | 79.26211 | 36904 ft | 528 kts | 108° |
| 2026-05-08 07:18 | 21.00193 | 79.33755 | 36904 ft | 528 kts | 108° |
| 2026-05-08 07:19 | 20.98057 | 79.41229 | 36901 ft | 528 kts | 108° |
| 2026-05-08 07:19 | 20.95903 | 79.48743 | 36902 ft | 528 kts | 108° |
| 2026-05-08 07:20 | 20.93741 | 79.56278 | 36903 ft | 529 kts | 108° |
| 2026-05-08 07:20 | 20.91590 | 79.63765 | 36897 ft | 529 kts | 109° |
| 2026-05-08 07:21 | 20.89424 | 79.71292 | 36902 ft | 530 kts | 109° |
| 2026-05-08 07:21 | 20.87253 | 79.78823 | 36902 ft | 530 kts | 109° |
| 2026-05-08 07:22 | 20.85442 | 79.85095 | 36902 ft | 530 kts | 109° |
| 2026-05-08 07:22 | 20.83260 | 79.92640 | 36893 ft | 530 kts | 109° |
| 2026-05-08 07:23 | 20.81081 | 80.00160 | 36896 ft | 529 kts | 109° |
| 2026-05-08 07:23 | 20.78916 | 80.07617 | 36907 ft | 528 kts | 109° |
| 2026-05-08 07:24 | 20.76738 | 80.15108 | 36901 ft | 527 kts | 109° |
| 2026-05-08 07:24 | 20.74563 | 80.22575 | 36908 ft | 526 kts | 109° |
| 2026-05-08 07:25 | 20.72384 | 80.30040 | 36909 ft | 525 kts | 109° |
| 2026-05-08 07:26 | 20.69123 | 80.41190 | 36907 ft | 525 kts | 109° |
| 2026-05-08 07:26 | 20.66938 | 80.48647 | 36912 ft | 525 kts | 109° |
| 2026-05-08 07:27 | 20.64749 | 80.56101 | 36915 ft | 526 kts | 109° |
| 2026-05-08 07:27 | 20.62567 | 80.63520 | 36908 ft | 526 kts | 109° |
| 2026-05-08 07:28 | 20.60368 | 80.70979 | 36915 ft | 527 kts | 109° |
| 2026-05-08 07:28 | 20.58163 | 80.78451 | 36912 ft | 527 kts | 109° |
| 2026-05-08 07:29 | 20.55953 | 80.85926 | 36899 ft | 527 kts | 109° |
| 2026-05-08 07:29 | 20.53757 | 80.93341 | 36907 ft | 527 kts | 109° |
| 2026-05-08 07:30 | 20.51541 | 81.00811 | 36909 ft | 527 kts | 109° |
| 2026-05-08 07:30 | 20.49328 | 81.08259 | 36915 ft | 526 kts | 110° |
| 2026-05-08 07:31 | 20.47112 | 81.15702 | 36919 ft | 526 kts | 110° |
| 2026-05-08 07:31 | 20.44901 | 81.23118 | 36915 ft | 527 kts | 110° |
| 2026-05-08 07:32 | 20.42709 | 81.30569 | 36913 ft | 527 kts | 109° |
| 2026-05-08 07:32 | 20.40561 | 81.38047 | 36916 ft | 527 kts | 109° |
| 2026-05-08 07:33 | 20.38410 | 81.45524 | 36925 ft | 527 kts | 109° |
| 2026-05-08 07:33 | 20.36259 | 81.52956 | 36926 ft | 527 kts | 109° |
| 2026-05-08 07:34 | 20.34088 | 81.60431 | 36925 ft | 527 kts | 109° |
| 2026-05-08 07:34 | 20.31914 | 81.67907 | 36928 ft | 528 kts | 109° |
| 2026-05-08 07:35 | 20.29734 | 81.75390 | 36924 ft | 528 kts | 109° |
| 2026-05-08 07:35 | 20.27551 | 81.82874 | 36916 ft | 528 kts | 109° |
| 2026-05-08 07:36 | 20.25382 | 81.90297 | 36931 ft | 528 kts | 109° |
| 2026-05-08 07:36 | 20.23196 | 81.97765 | 36924 ft | 527 kts | 109° |
| 2026-05-08 07:37 | 20.20772 | 82.05139 | 36927 ft | 526 kts | 113° |
| 2026-05-08 07:37 | 20.18131 | 82.12403 | 36926 ft | 525 kts | 114° |
| 2026-05-08 07:38 | 20.15503 | 82.19608 | 36930 ft | 525 kts | 113° |
| 2026-05-08 07:38 | 20.12880 | 82.26877 | 36930 ft | 525 kts | 113° |
| 2026-05-08 07:39 | 20.10266 | 82.34149 | 36933 ft | 525 kts | 113° |
| 2026-05-08 07:39 | 20.07649 | 82.41418 | 36923 ft | 525 kts | 113° |
| 2026-05-08 07:40 | 20.05049 | 82.48625 | 36923 ft | 525 kts | 113° |
| 2026-05-08 07:40 | 20.02428 | 82.55877 | 36924 ft | 525 kts | 113° |
| 2026-05-08 07:41 | 19.99798 | 82.63142 | 36924 ft | 525 kts | 113° |
| 2026-05-08 07:41 | 19.97168 | 82.70397 | 36912 ft | 525 kts | 113° |
| 2026-05-08 07:42 | 19.94557 | 82.77591 | 36906 ft | 524 kts | 113° |
| 2026-05-08 07:42 | 19.91932 | 82.84814 | 36915 ft | 523 kts | 114° |
| 2026-05-08 07:43 | 19.89310 | 82.92026 | 36909 ft | 523 kts | 113° |
| 2026-05-08 07:43 | 19.86722 | 82.99253 | 36914 ft | 523 kts | 113° |
| 2026-05-08 07:44 | 19.84148 | 83.06484 | 36906 ft | 523 kts | 113° |
| 2026-05-08 07:44 | 19.81570 | 83.13707 | 36916 ft | 522 kts | 113° |
| 2026-05-08 07:45 | 19.79004 | 83.20874 | 36925 ft | 522 kts | 113° |
| 2026-05-08 07:45 | 19.76418 | 83.28079 | 36933 ft | 522 kts | 113° |
| 2026-05-08 07:46 | 19.73819 | 83.35310 | 36916 ft | 522 kts | 113° |
| 2026-05-08 07:46 | 19.71239 | 83.42478 | 36924 ft | 522 kts | 113° |
| 2026-05-08 07:47 | 19.68643 | 83.49682 | 36915 ft | 522 kts | 113° |
| 2026-05-08 07:47 | 19.66044 | 83.56884 | 36928 ft | 521 kts | 114° |
| 2026-05-08 07:48 | 19.63468 | 83.64012 | 36923 ft | 520 kts | 114° |
| 2026-05-08 07:48 | 19.60875 | 83.71179 | 36920 ft | 519 kts | 114° |
| 2026-05-08 07:49 | 19.58280 | 83.78338 | 36916 ft | 519 kts | 114° |
| 2026-05-08 07:49 | 19.55688 | 83.85482 | 36916 ft | 519 kts | 114° |
| 2026-05-08 07:50 | 19.53087 | 83.92638 | 36915 ft | 519 kts | 114° |
| 2026-05-08 07:50 | 19.50505 | 83.99732 | 36910 ft | 518 kts | 114° |
| 2026-05-08 07:51 | 19.47907 | 84.06861 | 36905 ft | 518 kts | 114° |
| 2026-05-08 07:51 | 19.45305 | 84.13995 | 36912 ft | 518 kts | 114° |
| 2026-05-08 07:52 | 19.42705 | 84.21132 | 36912 ft | 519 kts | 113° |
| 2026-05-08 07:52 | 19.40484 | 84.28423 | 36906 ft | 521 kts | 110° |
| 2026-05-08 07:53 | 19.38404 | 84.35724 | 36902 ft | 521 kts | 110° |
| 2026-05-08 07:53 | 19.36298 | 84.43068 | 36877 ft | 520 kts | 110° |
| 2026-05-08 07:54 | 19.34171 | 84.50386 | 36882 ft | 519 kts | 110° |
| 2026-05-08 07:54 | 19.32036 | 84.57685 | 36866 ft | 518 kts | 110° |
| 2026-05-08 07:55 | 19.29917 | 84.64923 | 36881 ft | 517 kts | 110° |
| 2026-05-08 07:55 | 19.27784 | 84.72201 | 36859 ft | 516 kts | 110° |
| 2026-05-08 07:56 | 19.25656 | 84.79456 | 36862 ft | 516 kts | 110° |
| 2026-05-08 07:56 | 19.23525 | 84.86704 | 36864 ft | 515 kts | 110° |
| 2026-05-08 07:57 | 19.21403 | 84.93913 | 36859 ft | 515 kts | 110° |
| 2026-05-08 07:57 | 19.19268 | 85.01155 | 36864 ft | 516 kts | 110° |
| 2026-05-08 07:58 | 19.17127 | 85.08404 | 36865 ft | 516 kts | 110° |
| 2026-05-08 07:58 | 19.14983 | 85.15653 | 36865 ft | 516 kts | 110° |
| 2026-05-08 07:59 | 19.12840 | 85.22893 | 36866 ft | 516 kts | 110° |
| 2026-05-08 07:59 | 19.10652 | 85.30124 | 36868 ft | 515 kts | 112° |
| 2026-05-08 08:00 | 19.08336 | 85.37236 | 36868 ft | 515 kts | 112° |
| 2026-05-08 08:00 | 19.05984 | 85.44387 | 36865 ft | 515 kts | 112° |
| 2026-05-08 08:01 | 19.03658 | 85.51526 | 36868 ft | 514 kts | 112° |
| 2026-05-08 08:01 | 19.01340 | 85.58670 | 36863 ft | 513 kts | 112° |
| 2026-05-08 08:02 | 18.99027 | 85.65789 | 36865 ft | 512 kts | 112° |
| 2026-05-08 08:02 | 18.96716 | 85.72885 | 36863 ft | 511 kts | 112° |
| 2026-05-08 08:03 | 18.94400 | 85.79987 | 36866 ft | 510 kts | 112° |
| 2026-05-08 08:03 | 18.92475 | 85.85880 | 36866 ft | 510 kts | 112° |
| 2026-05-08 08:04 | 18.90198 | 85.92991 | 36869 ft | 511 kts | 112° |
| 2026-05-08 08:04 | 18.87946 | 86.00115 | 36865 ft | 511 kts | 112° |
| 2026-05-08 08:05 | 18.85704 | 86.07192 | 36863 ft | 511 kts | 112° |
| 2026-05-08 08:05 | 18.83439 | 86.14310 | 36867 ft | 512 kts | 112° |
| 2026-05-08 08:06 | 18.81164 | 86.21439 | 36862 ft | 512 kts | 112° |
| 2026-05-08 08:06 | 18.78884 | 86.28570 | 36868 ft | 512 kts | 112° |
| 2026-05-08 08:07 | 18.76604 | 86.35696 | 36864 ft | 513 kts | 112° |
| 2026-05-08 08:07 | 18.74320 | 86.42824 | 36866 ft | 513 kts | 112° |
| 2026-05-08 08:08 | 18.72032 | 86.49953 | 36867 ft | 513 kts | 112° |
| 2026-05-08 08:08 | 18.69754 | 86.57040 | 36863 ft | 513 kts | 112° |
| 2026-05-08 08:09 | 18.67457 | 86.64178 | 36866 ft | 513 kts | 112° |
| 2026-05-08 08:09 | 18.65159 | 86.71307 | 36866 ft | 513 kts | 112° |
| 2026-05-08 08:10 | 18.62855 | 86.78446 | 36864 ft | 514 kts | 112° |
| 2026-05-08 08:10 | 18.61328 | 86.83172 | 36867 ft | 514 kts | 112° |
| 2026-05-08 08:11 | 18.59649 | 86.88360 | 36866 ft | 514 kts | 112° |
| 2026-05-08 08:11 | 18.57340 | 86.95489 | 36864 ft | 514 kts | 112° |
| 2026-05-08 08:12 | 18.55023 | 87.02634 | 36866 ft | 514 kts | 112° |
| 2026-05-08 08:12 | 18.52724 | 87.09713 | 36861 ft | 514 kts | 112° |
| 2026-05-08 08:13 | 18.50406 | 87.16839 | 36863 ft | 514 kts | 112° |
| 2026-05-08 08:13 | 18.48083 | 87.23970 | 36864 ft | 514 kts | 112° |
| 2026-05-08 08:14 | 18.45758 | 87.31099 | 36863 ft | 514 kts | 112° |
| 2026-05-08 08:14 | 18.43441 | 87.38192 | 36863 ft | 514 kts | 112° |
| 2026-05-08 08:15 | 18.41115 | 87.45303 | 36859 ft | 513 kts | 112° |
| 2026-05-08 08:15 | 18.38787 | 87.52409 | 36863 ft | 512 kts | 112° |
| 2026-05-08 08:16 | 18.36460 | 87.59503 | 36863 ft | 512 kts | 112° |
| 2026-05-08 08:16 | 18.34152 | 87.66530 | 36862 ft | 511 kts | 112° |
| 2026-05-08 08:17 | 18.31822 | 87.73615 | 36860 ft | 511 kts | 112° |
| 2026-05-08 08:17 | 18.29497 | 87.80678 | 36865 ft | 511 kts | 112° |
| 2026-05-08 08:18 | 18.27182 | 87.87744 | 36862 ft | 511 kts | 112° |
| 2026-05-08 08:18 | 18.24915 | 87.94786 | 36861 ft | 511 kts | 112° |
| 2026-05-08 08:19 | 18.22632 | 88.01888 | 36859 ft | 511 kts | 112° |
| 2026-05-08 08:19 | 18.20342 | 88.08981 | 36862 ft | 512 kts | 112° |
| 2026-05-08 08:20 | 18.18049 | 88.16067 | 36863 ft | 512 kts | 112° |
| 2026-05-08 08:20 | 18.15750 | 88.23155 | 36860 ft | 512 kts | 112° |
| 2026-05-08 08:21 | 18.13446 | 88.30254 | 36859 ft | 512 kts | 112° |
| 2026-05-08 08:21 | 18.11153 | 88.37307 | 36858 ft | 513 kts | 112° |
| 2026-05-08 08:22 | 18.08841 | 88.44409 | 36856 ft | 513 kts | 112° |
| 2026-05-08 08:22 | 18.06528 | 88.51506 | 36848 ft | 512 kts | 111° |
| 2026-05-08 08:23 | 18.04231 | 88.58546 | 36855 ft | 511 kts | 111° |
| 2026-05-08 08:23 | 18.01924 | 88.65603 | 36859 ft | 510 kts | 111° |
| 2026-05-08 08:24 | 17.99619 | 88.72648 | 36855 ft | 510 kts | 111° |
| 2026-05-08 08:24 | 17.97311 | 88.79692 | 36859 ft | 509 kts | 111° |
| 2026-05-08 08:25 | 17.95010 | 88.86723 | 36857 ft | 509 kts | 111° |
| 2026-05-08 08:25 | 17.92760 | 88.93770 | 36861 ft | 509 kts | 111° |
| 2026-05-08 08:26 | 17.90524 | 89.00818 | 36860 ft | 509 kts | 111° |
| 2026-05-08 08:26 | 17.88291 | 89.07829 | 36857 ft | 509 kts | 111° |
| 2026-05-08 08:27 | 17.86035 | 89.14883 | 36851 ft | 509 kts | 111° |
| 2026-05-08 08:27 | 17.83777 | 89.21930 | 36854 ft | 509 kts | 111° |
| 2026-05-08 08:28 | 17.81513 | 89.28984 | 36852 ft | 509 kts | 111° |
| 2026-05-08 08:28 | 17.79259 | 89.36001 | 36854 ft | 510 kts | 111° |
| 2026-05-08 08:29 | 17.76988 | 89.43062 | 36854 ft | 510 kts | 111° |
| 2026-05-08 08:29 | 17.74718 | 89.50108 | 36854 ft | 510 kts | 111° |
| 2026-05-08 08:30 | 17.72441 | 89.57167 | 36855 ft | 510 kts | 111° |
| 2026-05-08 08:30 | 17.69040 | 89.67693 | 36851 ft | 509 kts | 111° |
| 2026-05-08 08:31 | 17.66765 | 89.74721 | 36848 ft | 509 kts | 111° |
| 2026-05-08 08:31 | 17.64487 | 89.81750 | 36849 ft | 508 kts | 111° |
| 2026-05-08 08:32 | 17.62209 | 89.88771 | 36848 ft | 508 kts | 111° |
| 2026-05-08 08:32 | 17.59931 | 89.95779 | 36846 ft | 508 kts | 111° |
| 2026-05-08 08:33 | 17.57655 | 90.02775 | 36852 ft | 507 kts | 111° |
| 2026-05-08 08:33 | 17.55372 | 90.09781 | 36848 ft | 507 kts | 111° |
| 2026-05-08 08:34 | 17.53102 | 90.16738 | 36854 ft | 507 kts | 111° |
| 2026-05-08 08:34 | 17.50811 | 90.23751 | 36849 ft | 508 kts | 111° |
| 2026-05-08 08:35 | 17.48523 | 90.30747 | 36841 ft | 508 kts | 111° |
| 2026-05-08 08:35 | 17.46242 | 90.37711 | 36844 ft | 508 kts | 111° |
| 2026-05-08 08:36 | 17.43948 | 90.44706 | 36840 ft | 507 kts | 111° |
| 2026-05-08 08:36 | 17.42870 | 90.47993 | 36836 ft | 507 kts | 111° |